Time;durP1;ratioP1;P1;durP2;ratioP2;P2;SDS_P1;SDS_P2;PMS_P1;PMS_P2;Temp;Humidity;BMP_temperature;BMP_pressure;BME280_temperature;BME280_humidity;BME280_pressure;Samples;Min_cycle;Max_cycle;Signal;HPM_P1;HPM_P2
2021/06/10 00:01:35;;;;;;;6.43;4.75;;;;;;;17.92;64.09;101224.88;5046966;28;20136;-70
2021/06/10 00:04:03;;;;;;;7.60;4.60;;;;;;;17.86;63.94;101230.69;5074272;28;20614;-70
2021/06/10 00:06:30;;;;;;;19.60;5.63;;;;;;;17.79;64.39;101221.53;5073224;28;20063;-70
2021/06/10 00:08:57;;;;;;;11.00;5.07;;;;;;;17.74;64.25;101224.50;5056328;28;20151;-70
2021/06/10 00:11:24;;;;;;;9.23;5.20;;;;;;;18.03;63.68;101229.34;5055154;28;20045;-69
2021/06/10 00:13:51;;;;;;;9.95;5.47;;;;;;;17.95;64.08;101229.97;5068250;28;20044;-69
2021/06/10 00:16:18;;;;;;;8.85;4.80;;;;;;;17.90;64.23;101221.50;5049197;28;20148;-69
2021/06/10 00:18:49;;;;;;;12.10;5.78;;;;;;;17.81;64.61;101216.91;5052254;28;20048;-69
2021/06/10 00:21:16;;;;;;;7.88;5.07;;;;;;;17.64;65.04;101216.38;5037063;28;20072;-69
2021/06/10 00:23:43;;;;;;;11.23;5.60;;;;;;;17.55;65.38;101216.28;5068478;28;20048;-70
2021/06/10 00:26:11;;;;;;;10.43;5.43;;;;;;;17.46;65.56;101210.69;5056193;28;20047;-70
2021/06/10 00:28:38;;;;;;;10.25;4.78;;;;;;;17.40;66.13;101213.84;5071281;28;20075;-70
2021/06/10 00:31:05;;;;;;;10.35;5.10;;;;;;;17.37;66.29;101203.44;5074150;28;20076;-69
2021/06/10 00:33:33;;;;;;;8.15;5.10;;;;;;;17.37;66.63;101197.25;5036015;28;20439;-68
2021/06/10 00:36:00;;;;;;;8.52;5.40;;;;;;;17.38;66.33;101197.16;5054594;28;20045;-69
2021/06/10 00:38:27;;;;;;;11.20;6.22;;;;;;;17.36;66.65;101196.41;5052572;28;20436;-69
2021/06/10 00:40:54;;;;;;;12.38;5.38;;;;;;;17.32;66.93;101194.97;5054045;28;20235;-70
2021/06/10 00:43:21;;;;;;;9.10;5.82;;;;;;;17.32;66.75;101194.13;5064068;28;20045;-70
2021/06/10 00:45:48;;;;;;;9.73;5.40;;;;;;;17.38;66.78;101196.28;5049516;28;20044;-69
2021/06/10 00:48:16;;;;;;;9.23;5.57;;;;;;;17.38;66.85;101193.63;5037361;28;20068;-71
2021/06/10 00:50:46;;;;;;;11.98;5.97;;;;;;;17.42;67.35;101200.41;5065543;28;20048;-69
2021/06/10 00:53:21;;;;;;;14.43;6.97;;;;;;;17.48;67.15;101197.28;5039550;28;20047;-69
2021/06/10 00:55:50;;;;;;;10.70;6.55;;;;;;;17.69;66.17;101203.53;5040990;28;20055;-69
2021/06/10 00:58:17;;;;;;;9.75;5.60;;;;;;;17.70;66.12;101199.94;5050963;28;20052;-68
2021/06/10 01:00:44;;;;;;;11.98;6.05;;;;;;;17.62;66.58;101197.03;5046457;28;20412;-71
2021/06/10 01:03:12;;;;;;;14.30;5.97;;;;;;;17.63;66.77;101203.19;5046677;28;20385;-70
2021/06/10 01:05:40;;;;;;;10.25;6.43;;;;;;;17.55;66.77;101205.63;5047698;28;20060;-68
2021/06/10 01:08:13;;;;;;;9.23;5.78;;;;;;;17.43;67.36;101202.97;5056845;28;20066;-68
2021/06/10 01:11:07;;;;;;;10.02;5.30;;;;;;;17.36;67.74;101203.56;5056226;28;20068;-69
2021/06/10 01:13:44;;;;;;;8.40;5.22;;;;;;;17.29;68.39;101205.00;5050570;28;20055;-69
2021/06/10 01:16:15;;;;;;;13.70;5.70;;;;;;;17.34;68.40;101206.34;5031034;28;20064;-69
2021/06/10 01:18:43;;;;;;;10.35;6.30;;;;;;;17.32;68.71;101207.44;5046372;28;20046;-69
2021/06/10 01:21:10;;;;;;;12.68;6.15;;;;;;;17.27;68.50;101199.81;5062298;28;20457;-69
2021/06/10 01:24:00;;;;;;;13.13;5.82;;;;;;;17.13;68.94;101200.88;5048509;28;20052;-70
2021/06/10 01:26:49;;;;;;;11.40;5.80;;;;;;;17.02;69.58;101194.69;5053194;28;20056;-69
2021/06/10 01:29:16;;;;;;;11.55;5.93;;;;;;;16.99;69.73;101192.28;5049470;28;20071;-71
2021/06/10 01:31:45;;;;;;;12.35;6.07;;;;;;;17.03;70.15;101185.75;5038539;28;20040;-69
2021/06/10 01:34:12;;;;;;;9.93;6.88;;;;;;;17.18;69.23;101182.75;5036191;28;20063;-71
2021/06/10 01:36:43;;;;;;;9.00;5.53;;;;;;;17.33;68.60;101186.00;5048578;28;20046;-69
2021/06/10 01:39:12;;;;;;;9.75;5.90;;;;;;;17.40;68.29;101183.72;5033754;28;20049;-69
2021/06/10 01:41:41;;;;;;;12.40;5.25;;;;;;;17.38;68.22;101175.00;5028821;28;20051;-70
2021/06/10 01:44:11;;;;;;;8.38;5.60;;;;;;;17.33;68.05;101183.34;5033943;28;20056;-69
2021/06/10 01:46:39;;;;;;;5.65;4.30;;;;;;;17.31;68.00;101176.47;5045476;28;20202;-70
2021/06/10 01:49:11;;;;;;;7.90;4.88;;;;;;;17.26;68.22;101175.97;5053473;28;20143;-68
2021/06/10 01:51:38;;;;;;;9.95;5.18;;;;;;;17.23;68.10;101174.41;5066745;28;20136;-69
2021/06/10 01:54:07;;;;;;;10.32;4.75;;;;;;;17.21;68.26;101179.84;5055567;28;20144;-70
2021/06/10 01:57:11;;;;;;;9.20;4.68;;;;;;;17.20;68.91;101175.50;5063682;28;20074;-69
2021/06/10 01:59:38;;;;;;;7.28;5.00;;;;;;;17.21;69.03;101169.19;5064095;28;20158;-69
2021/06/10 02:02:06;;;;;;;9.15;5.00;;;;;;;17.41;68.80;101166.78;5038672;28;20127;-70
2021/06/10 02:04:33;;;;;;;12.63;4.97;;;;;;;17.52;68.83;101169.47;5068691;28;20082;-70
2021/06/10 02:07:01;;;;;;;8.10;5.28;;;;;;;17.39;69.33;101161.59;5050793;28;20182;-70
2021/06/10 02:09:29;;;;;;;12.32;5.40;;;;;;;17.29;69.94;101168.63;5079331;28;20076;-69
2021/06/10 02:11:56;;;;;;;9.70;5.40;;;;;;;17.21;72.06;101163.88;5057768;28;20052;-69
2021/06/10 02:14:24;;;;;;;9.45;5.10;;;;;;;17.29;74.71;101159.75;5064696;28;20071;-69
2021/06/10 02:16:51;;;;;;;8.02;5.65;;;;;;;17.26;75.21;101160.88;5049427;28;20049;-70
2021/06/10 02:19:21;;;;;;;9.13;6.10;;;;;;;17.11;76.59;101160.25;5071026;28;20135;-69
2021/06/10 02:21:48;;;;;;;10.00;5.60;;;;;;;17.08;77.44;101159.63;5059447;28;20120;-71
2021/06/10 02:24:16;;;;;;;11.52;5.30;;;;;;;17.07;77.64;101155.28;5066359;28;20542;-70
2021/06/10 02:26:44;;;;;;;9.43;6.30;;;;;;;17.04;78.28;101152.84;5051207;28;20078;-70
2021/06/10 02:29:11;;;;;;;11.15;5.57;;;;;;;17.10;77.96;101153.22;5034217;28;20051;-70
2021/06/10 02:31:38;;;;;;;8.00;5.13;;;;;;;17.01;78.22;101155.75;5069488;28;20054;-70
2021/06/10 02:34:06;;;;;;;7.80;5.43;;;;;;;16.89;78.44;101149.59;5068642;28;20056;-71
2021/06/10 02:36:35;;;;;;;8.88;5.78;;;;;;;16.87;78.34;101146.19;5052760;28;20066;-70
2021/06/10 02:39:10;;;;;;;8.40;5.53;;;;;;;16.76;78.74;101146.16;5052619;28;20058;-69
2021/06/10 02:41:40;;;;;;;7.60;5.28;;;;;;;16.71;79.44;101150.00;5029863;28;20052;-71
2021/06/10 02:44:08;;;;;;;7.95;5.43;;;;;;;16.78;79.97;101149.53;5052598;28;20055;-69
2021/06/10 02:46:36;;;;;;;11.65;5.57;;;;;;;16.89;80.15;101144.25;5070715;28;20365;-70
2021/06/10 02:49:03;;;;;;;8.18;5.30;;;;;;;16.98;79.89;101148.88;5037219;28;20131;-68
2021/06/10 02:51:32;;;;;;;8.73;6.10;;;;;;;17.04;78.71;101152.84;5031969;28;20083;-69
2021/06/10 02:54:01;;;;;;;8.30;6.05;;;;;;;17.04;77.74;101153.72;5055266;28;20064;-68
2021/06/10 02:56:28;;;;;;;6.50;5.72;;;;;;;17.09;77.46;101154.19;5049710;28;20065;-68
2021/06/10 02:59:00;;;;;;;12.05;5.72;;;;;;;17.18;76.78;101157.94;5034542;28;20045;-70
2021/06/10 03:01:29;;;;;;;9.35;5.07;;;;;;;17.47;76.13;101150.31;5031804;28;20037;-69
2021/06/10 03:03:59;;;;;;;9.45;5.60;;;;;;;17.60;75.89;101148.38;5052956;28;20420;-68
2021/06/10 03:06:26;;;;;;;8.05;5.38;;;;;;;17.64;76.26;101147.16;5036421;28;20036;-69
2021/06/10 03:08:53;;;;;;;6.22;5.25;;;;;;;17.59;76.23;101137.84;5053634;28;20091;-69
2021/06/10 03:11:22;;;;;;;7.47;5.15;;;;;;;17.58;76.33;101139.66;5031035;28;20048;-70
2021/06/10 03:13:50;;;;;;;9.60;5.90;;;;;;;17.70;74.58;101157.34;5049692;28;20131;-69
2021/06/10 03:16:18;;;;;;;7.78;5.55;;;;;;;17.88;72.73;101151.53;5045420;28;20060;-68
2021/06/10 03:18:45;;;;;;;8.65;5.43;;;;;;;18.16;71.27;101147.44;5032717;28;20527;-70
2021/06/10 03:21:12;;;;;;;10.23;5.32;;;;;;;18.19;71.24;101150.72;5063641;28;20048;-69
2021/06/10 03:23:40;;;;;;;8.80;4.93;;;;;;;18.31;69.29;101150.66;5033382;28;20052;-69
2021/06/10 03:26:07;;;;;;;9.27;5.82;;;;;;;18.33;68.63;101144.22;5063906;28;20512;-71
2021/06/10 03:28:36;;;;;;;14.30;6.05;;;;;;;18.44;67.82;101146.00;5032990;28;20048;-69
2021/06/10 03:31:04;;;;;;;11.02;5.85;;;;;;;18.60;66.99;101146.41;5039003;28;21001;-70
2021/06/10 03:33:31;;;;;;;9.52;5.82;;;;;;;18.64;66.47;101146.97;5030200;28;20131;-69
2021/06/10 03:35:59;;;;;;;12.15;6.97;;;;;;;18.43;67.35;101157.63;5046458;28;20581;-68
2021/06/10 03:38:26;;;;;;;13.25;5.93;;;;;;;18.32;66.67;101160.31;5051058;28;20051;-68
2021/06/10 03:40:54;;;;;;;7.32;5.55;;;;;;;18.09;67.22;101160.41;5031874;28;20642;-69
2021/06/10 03:43:22;;;;;;;14.75;6.10;;;;;;;18.02;67.34;101156.56;5059996;28;20479;-71
2021/06/10 03:45:50;;;;;;;12.07;5.88;;;;;;;18.31;65.93;101148.81;5067694;28;20049;-69
2021/06/10 03:48:17;;;;;;;10.25;5.72;;;;;;;18.22;66.61;101154.91;5057801;28;20098;-69
2021/06/10 03:50:47;;;;;;;9.52;6.70;;;;;;;18.19;65.44;101156.03;5026291;28;20048;-68
2021/06/10 03:53:15;;;;;;;9.73;6.03;;;;;;;18.19;65.88;101166.69;5070836;28;20056;-70
2021/06/10 03:55:42;;;;;;;12.10;5.40;;;;;;;17.95;66.53;101158.88;5033841;28;20045;-70
2021/06/10 03:58:09;;;;;;;9.77;5.57;;;;;;;17.85;66.53;101165.94;5070794;28;20128;-69
2021/06/10 04:00:36;;;;;;;10.32;6.00;;;;;;;17.68;67.19;101161.91;5050923;28;20167;-69
2021/06/10 04:03:04;;;;;;;10.18;5.78;;;;;;;17.76;66.83;101165.81;5060562;28;20424;-69
2021/06/10 04:05:31;;;;;;;7.82;6.70;;;;;;;17.77;67.31;101163.03;5058891;28;20135;-70
2021/06/10 04:07:59;;;;;;;11.82;6.70;;;;;;;17.72;67.04;101158.03;5064876;28;20527;-70
2021/06/10 04:10:26;;;;;;;8.52;6.03;;;;;;;17.66;67.36;101166.53;5054042;28;20047;-70
2021/06/10 04:12:54;;;;;;;8.75;6.03;;;;;;;17.94;65.63;101157.19;5056147;28;20051;-69
2021/06/10 04:15:21;;;;;;;11.15;6.32;;;;;;;18.10;64.83;101156.78;5065284;28;20124;-69
2021/06/10 04:17:48;;;;;;;6.85;5.95;;;;;;;18.18;64.81;101154.31;5043386;28;20078;-70
2021/06/10 04:20:41;;;;;;;10.75;5.82;;;;;;;18.44;63.26;101154.81;5068983;28;20044;-70
2021/06/10 04:23:08;;;;;;;8.73;5.28;;;;;;;18.49;63.52;101159.78;5048484;28;20106;-69
2021/06/10 04:25:36;;;;;;;8.10;5.85;;;;;;;18.50;63.45;101158.78;5046625;28;20053;-70
2021/06/10 04:28:03;;;;;;;8.23;5.28;;;;;;;18.50;63.51;101160.63;5049625;28;20041;-70
2021/06/10 04:30:30;;;;;;;7.18;5.25;;;;;;;18.52;63.65;101156.03;5056848;28;20056;-69
2021/06/10 04:32:57;;;;;;;7.43;4.65;;;;;;;18.72;62.61;101152.53;5067353;28;20078;-69
2021/06/10 04:35:25;;;;;;;8.30;4.28;;;;;;;19.12;60.13;101159.78;5076826;28;20056;-68
2021/06/10 04:37:52;;;;;;;7.60;4.95;;;;;;;19.11;60.16;101156.28;5057609;28;20044;-69
2021/06/10 04:40:20;;;;;;;13.38;5.25;;;;;;;19.23;59.92;101170.41;5067964;28;20114;-69
2021/06/10 04:42:48;;;;;;;8.80;5.20;;;;;;;19.85;58.81;101163.19;5034599;28;20048;-68
2021/06/10 04:45:15;;;;;;;6.55;4.88;;;;;;;19.89;58.08;101159.25;5069489;28;20058;-70
2021/06/10 04:47:42;;;;;;;9.75;4.78;;;;;;;19.83;57.14;101157.16;5029072;28;20580;-68
2021/06/10 04:50:09;;;;;;;7.28;4.60;;;;;;;19.52;58.37;101162.50;5067442;28;20135;-70
2021/06/10 04:52:37;;;;;;;8.07;5.03;;;;;;;19.59;58.01;101168.16;5065589;28;20049;-68
2021/06/10 04:55:04;;;;;;;5.45;4.95;;;;;;;19.63;58.27;101161.56;5045108;28;20509;-70
2021/06/10 04:57:33;;;;;;;9.32;5.25;;;;;;;19.79;57.88;101169.09;5059870;28;20143;-69
2021/06/10 05:00:01;;;;;;;12.15;5.05;;;;;;;20.38;57.02;101157.47;5067972;28;20060;-71
2021/06/10 05:02:28;;;;;;;7.47;5.32;;;;;;;21.55;53.41;101169.66;5058659;28;20136;-70
2021/06/10 05:04:55;;;;;;;7.28;4.70;;;;;;;23.97;47.38;101159.28;5048264;28;20052;-70
2021/06/10 05:07:22;;;;;;;8.38;4.72;;;;;;;25.41;42.95;101164.13;5042437;28;20049;-69
2021/06/10 05:09:49;;;;;;;8.23;4.82;;;;;;;25.87;41.57;101156.19;5062822;28;20087;-69
2021/06/10 05:12:17;;;;;;;7.97;4.50;;;;;;;26.12;41.09;101156.91;5067723;28;20074;-69
2021/06/10 05:14:44;;;;;;;9.27;4.95;;;;;;;27.72;38.08;101151.13;5074414;28;20052;-72
2021/06/10 05:17:11;;;;;;;8.75;4.30;;;;;;;28.17;36.71;101153.69;5054302;28;20512;-69
2021/06/10 05:19:38;;;;;;;5.20;4.20;;;;;;;29.38;34.76;101157.16;5041626;28;20066;-70
2021/06/10 05:22:05;;;;;;;6.28;4.40;;;;;;;30.07;32.50;101159.72;5076451;28;20048;-69
2021/06/10 05:24:33;;;;;;;5.32;4.53;;;;;;;31.52;30.40;101155.28;5071646;28;20056;-69
2021/06/10 05:27:00;;;;;;;7.25;5.10;;;;;;;30.61;30.45;101157.94;5050222;28;20040;-69
2021/06/10 05:29:27;;;;;;;7.22;4.60;;;;;;;28.74;34.36;101161.72;5048914;28;20047;-70
2021/06/10 05:31:54;;;;;;;7.95;4.38;;;;;;;30.71;31.28;101151.06;5067434;28;20445;-70
2021/06/10 05:34:28;;;;;;;7.68;4.53;;;;;;;32.30;28.80;101151.53;5079691;28;20044;-71
2021/06/10 05:36:55;;;;;;;5.70;4.32;;;;;;;32.26;28.88;101160.13;5068821;28;20091;-69
2021/06/10 05:39:23;;;;;;;6.10;4.10;;;;;;;33.05;27.27;101157.81;5049375;28;20048;-70
2021/06/10 05:41:51;;;;;;;7.78;4.90;;;;;;;31.88;28.95;101153.88;5060667;28;20032;-68
2021/06/10 05:44:18;;;;;;;7.82;4.63;;;;;;;32.58;28.06;101157.41;5068310;28;20500;-70
2021/06/10 05:46:48;;;;;;;5.82;3.55;;;;;;;31.05;29.48;101156.44;5021510;28;20053;-69
2021/06/10 05:49:16;;;;;;;9.10;3.97;;;;;;;29.12;32.64;101165.97;5049695;28;20048;-69
2021/06/10 05:51:44;;;;;;;5.30;3.40;;;;;;;28.22;34.07;101162.88;5059970;28;20044;-69
2021/06/10 05:54:11;;;;;;;8.48;3.58;;;;;;;27.50;35.79;101165.56;5049410;28;20047;-69
2021/06/10 05:56:38;;;;;;;7.22;3.65;;;;;;;28.86;34.38;101158.47;5066013;28;20277;-70
2021/06/10 05:59:05;;;;;;;13.15;4.47;;;;;;;29.90;32.28;101166.56;5053172;28;20554;-69
2021/06/10 06:01:32;;;;;;;12.18;5.50;;;;;;;30.49;31.11;101171.31;5067600;28;20151;-69
2021/06/10 06:04:00;;;;;;;17.48;4.72;;;;;;;32.34;29.02;101166.38;5051675;28;20059;-69
2021/06/10 06:06:27;;;;;;;12.52;4.30;;;;;;;33.37;26.79;101166.72;5052311;28;20510;-70
2021/06/10 06:08:54;;;;;;;6.57;4.20;;;;;;;32.95;26.89;101173.88;5049823;28;20487;-70
2021/06/10 06:11:22;;;;;;;9.15;3.15;;;;;;;34.43;25.19;101168.00;5052413;28;20069;-70
2021/06/10 06:16:20;;;;;;;8.35;3.78;;;;;;;34.31;24.73;101174.50;5046081;28;20044;-69
2021/06/10 06:18:47;;;;;;;6.47;3.50;;;;;;;35.42;23.62;101167.31;5069990;28;20144;-69
2021/06/10 06:21:14;;;;;;;6.88;4.65;;;;;;;35.50;23.29;101165.06;5051492;28;20051;-69
2021/06/10 06:23:42;;;;;;;8.90;4.30;;;;;;;35.74;23.45;101165.78;5039383;28;20048;-69
2021/06/10 06:26:10;;;;;;;9.52;4.05;;;;;;;34.42;24.63;101170.97;5062649;28;20057;-69
2021/06/10 06:28:40;;;;;;;9.52;4.20;;;;;;;34.40;25.22;101176.66;5075001;28;20118;-68
2021/06/10 06:31:10;;;;;;;6.68;3.47;;;;;;;34.04;24.45;101174.06;5070893;28;20787;-69
2021/06/10 06:33:37;;;;;;;6.72;3.65;;;;;;;33.18;25.92;101179.50;5039901;28;20053;-69
2021/06/10 06:36:05;;;;;;;7.65;3.70;;;;;;;31.00;29.12;101173.41;5054846;28;20535;-70
2021/06/10 06:38:32;;;;;;;13.45;4.00;;;;;;;29.58;32.04;101181.69;5033549;28;20147;-69
2021/06/10 06:41:00;;;;;;;8.43;3.30;;;;;;;29.44;32.33;101183.47;5033161;28;20044;-69
2021/06/10 06:43:30;;;;;;;11.63;3.78;;;;;;;28.75;33.72;101185.06;5030292;28;20129;-70
2021/06/10 06:45:58;;;;;;;31.30;4.60;;;;;;;29.64;32.40;101189.88;5064433;28;20044;-68
2021/06/10 06:48:26;;;;;;;17.45;3.72;;;;;;;29.90;32.44;101193.72;5076325;28;20515;-69
2021/06/10 06:50:53;;;;;;;9.40;3.85;;;;;;;31.10;30.49;101186.56;5034467;28;20056;-70
2021/06/10 06:53:20;;;;;;;6.70;3.22;;;;;;;32.73;27.56;101187.88;5050460;28;20451;-70
2021/06/10 06:55:48;;;;;;;19.95;4.47;;;;;;;33.24;26.96;101189.53;5066432;28;20037;-69
2021/06/10 06:58:15;;;;;;;8.57;3.63;;;;;;;32.16;27.98;101188.94;5047483;28;20052;-70
2021/06/10 07:00:42;;;;;;;9.77;4.18;;;;;;;32.23;28.38;101195.97;5060101;28;20416;-70
2021/06/10 07:03:09;;;;;;;7.82;3.17;;;;;;;34.59;25.39;101196.59;5071610;28;20136;-69
2021/06/10 07:05:36;;;;;;;10.15;3.40;;;;;;;35.82;24.15;101191.16;5068364;28;20045;-70
2021/06/10 07:08:04;;;;;;;5.68;3.10;;;;;;;34.43;24.16;101197.25;5052549;28;20052;-69
2021/06/10 07:10:31;;;;;;;9.93;4.20;;;;;;;35.69;22.71;101195.81;5065856;28;20053;-70
2021/06/10 07:12:58;;;;;;;5.30;2.90;;;;;;;35.21;22.84;101199.69;5073857;28;20071;-68
2021/06/10 07:15:25;;;;;;;9.25;3.40;;;;;;;34.36;24.76;101197.34;5045735;28;20094;-68
2021/06/10 07:17:52;;;;;;;9.57;3.90;;;;;;;34.97;24.33;101203.53;5068988;28;20135;-68
2021/06/10 07:20:20;;;;;;;6.47;3.33;;;;;;;34.94;23.81;101203.97;5063427;28;20139;-69
2021/06/10 07:22:48;;;;;;;3.83;2.85;;;;;;;34.14;24.73;101207.16;5055225;28;20060;-69
2021/06/10 07:25:15;;;;;;;5.80;3.20;;;;;;;33.73;25.15;101206.81;5067569;28;20041;-69
2021/06/10 07:27:43;;;;;;;5.85;3.17;;;;;;;31.10;29.07;101209.16;5054802;28;20045;-69
2021/06/10 07:30:11;;;;;;;3.72;2.70;;;;;;;31.43;28.11;101203.69;5066147;28;20053;-68
2021/06/10 07:32:38;;;;;;;12.27;4.03;;;;;;;35.47;23.52;101205.78;5070211;28;20048;-68
2021/06/10 07:35:06;;;;;;;5.65;3.28;;;;;;;34.98;23.24;101211.50;5070300;28;20088;-69
2021/06/10 07:37:34;;;;;;;5.05;3.38;;;;;;;33.78;25.19;101213.50;5073692;28;20402;-69
2021/06/10 07:40:03;;;;;;;7.40;3.20;;;;;;;35.42;23.47;101206.47;5050613;28;20041;-69
2021/06/10 07:42:30;;;;;;;10.13;3.38;;;;;;;34.30;24.92;101213.84;5079762;28;20052;-69
2021/06/10 07:44:57;;;;;;;11.68;3.40;;;;;;;36.25;22.54;101204.28;5061380;28;20047;-69
2021/06/10 07:47:25;;;;;;;5.32;3.70;;;;;;;36.64;21.94;101219.00;5070824;28;20112;-69
2021/06/10 07:49:52;;;;;;;10.55;4.82;;;;;;;36.00;22.50;101218.38;5068352;28;20067;-69
2021/06/10 07:52:19;;;;;;;8.50;4.88;;;;;;;36.89;21.17;101220.50;5067161;28;20471;-69
2021/06/10 07:54:46;;;;;;;6.43;4.28;;;;;;;36.53;21.78;101219.91;5069734;28;20139;-69
2021/06/10 07:57:14;;;;;;;7.55;4.15;;;;;;;35.65;22.88;101219.28;5045951;28;20053;-72
2021/06/10 07:59:41;;;;;;;5.28;4.10;;;;;;;33.72;24.66;101224.25;5065318;28;20175;-70
2021/06/10 08:02:09;;;;;;;4.97;3.53;;;;;;;35.28;23.04;101217.91;5067123;28;20512;-70
2021/06/10 08:04:37;;;;;;;10.98;4.43;;;;;;;35.59;22.98;101223.00;5056810;28;20592;-70
2021/06/10 08:07:04;;;;;;;8.15;4.07;;;;;;;37.54;20.64;101218.97;5063435;28;20583;-69
2021/06/10 08:09:32;;;;;;;6.05;4.43;;;;;;;37.12;20.69;101220.31;5076219;28;20055;-68
2021/06/10 08:12:00;;;;;;;7.05;4.82;;;;;;;37.49;20.63;101222.50;5064989;28;20719;-69
2021/06/10 08:14:27;;;;;;;7.05;4.93;;;;;;;36.36;22.07;101219.03;5048276;28;20052;-70
2021/06/10 08:16:54;;;;;;;6.38;5.30;;;;;;;36.45;21.73;101215.66;5053748;28;20089;-69
2021/06/10 08:19:22;;;;;;;7.95;5.38;;;;;;;35.76;22.13;101220.34;5057613;28;20570;-71
2021/06/10 08:21:49;;;;;;;6.75;6.05;;;;;;;34.25;24.12;101228.22;5071202;28;20531;-70
2021/06/10 08:24:16;;;;;;;8.52;5.93;;;;;;;32.09;27.10;101223.53;5069403;28;20072;-69
2021/06/10 08:26:43;;;;;;;7.57;6.32;;;;;;;33.23;25.32;101219.75;5068530;28;20048;-69
2021/06/10 08:29:11;;;;;;;8.23;4.90;;;;;;;32.13;26.69;101220.16;5070657;28;20067;-70
2021/06/10 08:31:38;;;;;;;10.93;4.90;;;;;;;31.77;27.63;101216.09;5059779;28;20063;-70
2021/06/10 08:34:05;;;;;;;11.30;4.95;;;;;;;30.42;29.48;101228.34;5052587;28;20107;-69
2021/06/10 08:36:33;;;;;;;8.07;5.65;;;;;;;30.90;28.42;101216.50;5075158;28;20036;-69
2021/06/10 08:39:01;;;;;;;17.90;5.40;;;;;;;30.39;28.72;101225.19;5056935;28;20147;-70
2021/06/10 08:41:28;;;;;;;8.45;5.85;;;;;;;29.84;29.69;101218.97;5047900;28;20127;-70
2021/06/10 08:43:57;;;;;;;11.68;5.82;;;;;;;29.40;30.83;101220.16;5043255;28;20060;-69
2021/06/10 08:46:26;;;;;;;7.20;5.13;;;;;;;29.51;30.35;101214.19;5075784;28;20128;-69
2021/06/10 08:48:53;;;;;;;8.05;5.18;;;;;;;28.66;32.03;101217.94;5061455;28;20040;-69
2021/06/10 08:51:20;;;;;;;8.98;4.57;;;;;;;28.83;32.20;101221.22;5047296;28;20665;-68
2021/06/10 08:53:48;;;;;;;5.53;4.88;;;;;;;28.09;32.64;101224.19;5057434;28;20083;-68
2021/06/10 08:56:15;;;;;;;7.55;4.82;;;;;;;28.36;31.94;101223.47;5070493;28;20037;-69
2021/06/10 08:58:42;;;;;;;5.18;4.65;;;;;;;28.32;32.56;101222.13;5057374;28;20053;-70
2021/06/10 09:01:14;;;;;;;6.47;5.20;;;;;;;28.04;32.76;101215.78;5050996;28;20051;-70
2021/06/10 09:03:42;;;;;;;10.05;6.72;;;;;;;27.17;34.97;101227.28;5070019;28;20090;-70
2021/06/10 09:06:11;;;;;;;6.75;5.93;;;;;;;26.88;35.66;101222.63;5049861;28;20114;-70
2021/06/10 09:08:40;;;;;;;8.68;6.80;;;;;;;26.89;35.19;101218.94;5072736;28;20056;-69
2021/06/10 09:11:12;;;;;;;15.20;5.47;;;;;;;27.09;35.83;101221.97;5071879;28;20060;-69
2021/06/10 09:14:07;;;;;;;7.90;5.28;;;;;;;27.51;34.93;101221.31;5070036;28;20074;-69
2021/06/10 09:16:36;;;;;;;8.83;4.83;;;;;;;28.48;33.43;101212.97;5066933;28;20045;-70
2021/06/10 09:19:13;;;;;;;9.93;5.28;;;;;;;28.07;33.36;101218.13;5054604;28;20135;-68
2021/06/10 09:21:57;;;;;;;6.95;4.35;;;;;;;28.10;33.08;101220.44;5029491;28;20041;-69
2021/06/10 09:24:25;;;;;;;4.95;4.55;;;;;;;28.24;33.49;101217.69;5037529;28;20052;-72
2021/06/10 09:27:19;;;;;;;7.47;3.92;;;;;;;28.00;33.70;101216.16;5051720;28;20044;-70
2021/06/10 09:29:51;;;;;;;9.15;4.55;;;;;;;27.37;34.59;101214.06;5045578;28;20927;-70
2021/06/10 09:32:25;;;;;;;8.23;6.30;;;;;;;27.05;34.83;101223.31;5049541;28;20538;-70
2021/06/10 09:35:05;;;;;;;7.18;5.93;;;;;;;26.46;35.94;101221.28;5050149;28;20118;-68
2021/06/10 09:37:34;;;;;;;10.48;5.25;;;;;;;26.82;35.82;101218.81;5068928;28;20052;-69
2021/06/10 09:40:20;;;;;;;6.60;4.93;;;;;;;26.87;35.32;101212.84;5065659;28;20052;-69
2021/06/10 09:42:47;;;;;;;;;;;;;;;27.10;35.22;101210.13;5056540;28;20048;-69
2021/06/10 09:45:16;;;;;;;6.45;4.20;;;;;;;27.32;33.72;101216.50;5052941;28;19926;-69
2021/06/10 09:47:46;;;;;;;10.60;5.80;;;;;;;26.37;34.89;101223.16;5049781;28;20058;-69
2021/06/10 09:50:19;;;;;;;6.18;5.10;;;;;;;26.42;34.23;101217.22;5056405;28;20048;-69
2021/06/10 09:52:48;;;;;;;8.68;5.30;;;;;;;27.03;33.65;101207.31;5041178;28;20082;-68
2021/06/10 09:56:03;;;;;;;10.65;4.85;;;;;;;27.99;32.61;101206.38;5076180;28;20171;-69
2021/06/10 09:58:41;;;;;;;10.90;4.25;;;;;;;27.96;32.23;101208.63;5071215;28;20156;-70
2021/06/10 10:01:16;;;;;;;5.55;3.65;;;;;;;27.99;32.71;101208.25;5061920;28;20112;-69
2021/06/10 10:03:48;;;;;;;5.97;3.00;;;;;;;28.43;32.04;101204.59;5034296;28;20676;-69
2021/06/10 10:06:21;;;;;;;5.95;3.65;;;;;;;27.94;32.02;101206.09;5062232;28;20056;-70
2021/06/10 10:08:53;;;;;;;5.80;3.53;;;;;;;27.26;31.63;101209.97;5068338;28;20102;-68
2021/06/10 10:11:23;;;;;;;4.43;4.00;;;;;;;26.74;32.09;101203.50;5032903;28;20040;-68
2021/06/10 10:13:52;;;;;;;4.32;3.15;;;;;;;26.67;32.47;101215.22;5033668;28;20098;-69
2021/06/10 10:16:26;;;;;;;5.93;4.05;;;;;;;27.19;32.45;101209.84;5062000;28;20135;-69
2021/06/10 10:18:54;;;;;;;6.95;3.63;;;;;;;26.91;32.79;101204.19;5033454;28;20151;-69
2021/06/10 10:21:29;;;;;;;9.73;3.60;;;;;;;26.68;34.02;101208.78;5055674;28;20056;-69
2021/06/10 10:24:00;;;;;;;7.35;3.58;;;;;;;27.28;32.91;101210.59;5055461;28;20468;-70
2021/06/10 10:26:28;;;;;;;7.22;3.70;;;;;;;27.46;32.20;101207.53;5056852;28;20416;-69
2021/06/10 10:28:57;;;;;;;12.43;4.38;;;;;;;27.09;31.50;101208.44;5072163;28;20083;-70
2021/06/10 10:31:25;;;;;;;10.38;3.22;;;;;;;27.19;31.68;101212.56;5074051;28;20758;-71
2021/06/10 10:33:53;;;;;;;5.85;3.53;;;;;;;27.35;31.69;101198.03;5041052;28;20044;-69
2021/06/10 10:36:28;;;;;;;4.90;3.85;;;;;;;26.87;32.44;101207.44;5067792;28;20093;-69
2021/06/10 10:39:08;;;;;;;8.73;4.07;;;;;;;26.83;32.78;101203.44;5071323;28;20036;-69
2021/06/10 10:41:52;;;;;;;7.88;4.45;;;;;;;26.60;32.65;101203.47;5060750;28;20539;-69
2021/06/10 10:44:26;;;;;;;5.82;3.55;;;;;;;26.64;33.11;101208.31;5049597;28;20140;-69
2021/06/10 10:46:59;;;;;;;4.47;3.40;;;;;;;26.99;32.46;101200.59;5036969;28;20052;-69
2021/06/10 10:49:29;;;;;;;6.15;3.53;;;;;;;27.50;31.82;101198.84;5056218;28;20068;-67
2021/06/10 10:52:34;;;;;;;5.78;3.70;;;;;;;26.85;32.53;101196.00;5051028;28;20069;-68
2021/06/10 10:55:17;;;;;;;6.20;3.58;;;;;;;27.25;32.80;101201.03;5024731;28;20066;-68
2021/06/10 10:57:45;;;;;;;23.40;4.53;;;;;;;27.34;32.23;101190.97;5049376;28;20071;-68
2021/06/10 11:00:20;;;;;;;7.38;4.38;;;;;;;27.25;32.26;101201.03;5059271;28;20042;-69
2021/06/10 11:03:16;;;;;;;4.13;3.50;;;;;;;26.94;31.41;101193.03;5075250;28;20047;-69
2021/06/10 11:05:46;;;;;;;9.93;3.28;;;;;;;27.14;32.07;101189.81;5071899;28;20123;-69
2021/06/10 11:08:14;;;;;;;6.05;3.53;;;;;;;27.28;31.52;101188.97;5070607;28;20032;-69
2021/06/10 11:10:50;;;;;;;5.55;3.47;;;;;;;26.62;31.71;101177.97;5077766;28;20082;-69
2021/06/10 11:13:28;;;;;;;5.88;2.83;;;;;;;26.79;32.13;101178.63;5076034;28;20056;-68
2021/06/10 11:15:57;;;;;;;4.18;2.95;;;;;;;26.34;33.48;101190.28;5065145;28;20067;-69
2021/06/10 11:18:41;;;;;;;4.72;3.00;;;;;;;26.48;33.10;101184.16;5052039;28;20044;-70
2021/06/10 11:21:19;;;;;;;20.67;3.63;;;;;;;26.82;33.28;101178.28;5042810;28;20135;-72
2021/06/10 11:24:19;;;;;;;11.68;3.63;;;;;;;26.54;33.52;101179.88;5051813;28;20185;-68
2021/06/10 11:27:24;;;;;;;9.35;3.05;;;;;;;27.06;32.71;101174.47;5031924;28;20043;-67
2021/06/10 11:30:16;;;;;;;4.50;2.92;;;;;;;26.75;32.85;101167.38;5070196;28;20135;-69
2021/06/10 11:33:00;;;;;;;4.43;2.83;;;;;;;26.43;32.88;101167.59;5052306;28;20037;-70
2021/06/10 11:35:46;;;;;;;4.03;3.00;;;;;;;26.53;32.39;101162.00;5039130;28;20049;-70
2021/06/10 11:38:20;;;;;;;5.00;2.53;;;;;;;26.66;32.11;101163.06;5059189;28;20124;-68
2021/06/10 11:40:49;;;;;;;5.65;2.70;;;;;;;27.11;31.98;101161.31;5047248;28;20543;-68